Accueil
METAR-TAF:

METAR-TAF

Aéroports :

Bergame, Italie

Aéroport de Bergame-Orio al Serio

latitude: 45-40N, longitude: 009-42E, altitude: 238 m

Observation

Le bulletin a été fait il y a 16 minutes, à 02:20 UTC
Vent 4 kt de nord-est, variant entre nord/nord-est et est
Température 11°C
Humidité 66%
Pression 1012 hPa
Visibilité 10 km ou plus
Nuages fragmentés à une hauteur de 8000 ft

METAR: LIME 010220Z 05004KT 020V080 9999 BKN080 11/05 Q1012 NOSIG

Heure: 04:36 (02:36 UTC)

Prévision

Le bulletin a été fait il y a 3 heures et 36 minutes, à 23:00 UTC
Prévision valable du 01 à 00 UTC au 01 à 24 UTC
Vent 8 kt de est/sud-est
Visibilité 10 km ou plus
Nuages fragmentés à une hauteur de 5000 ft
Evoluant progressivement
du 01 à 07 UTC au 01 à 09 UTC
Visibilité: 4000 m
pluie
Evoluant progressivement
du 01 à 18 UTC au 01 à 20 UTC
Visibilité: 8000 m

TAF: LIME 302300Z 0100/0124 12008KT 9999 BKN050 BECMG 0107/0109 4000 RA BECMG 0118/0120 8000 NSW

Observations et prévisions météorologiques de plus de 4000 aéroports (messages METAR et TAF).

Les stations disponibles sont représentées par des disques jaunes et rouges sur la carte.

Passer la souris dessus pour voir le nom de la station.

Cliquer dessus pour voir les observations et prévisions météorologiques.

Pour changer de carte: cliquez sur les boutons verts avec une croix noire pour zoomer, sur le bouton vert avec un tiret pour effectuer un zoom arrière, ou sur les flèches vertes pour les cartes adjacentes.


METAR-TAF: